createdAt,value
2023-02-04T00:01:39.307Z,99635.77
2023-02-04T00:04:09.253Z,99627.05
2023-02-04T00:06:39.087Z,99638.25
2023-02-04T00:09:08.771Z,99661.84
2023-02-04T00:11:38.534Z,99656.73
2023-02-04T00:14:09.173Z,99674.27
2023-02-04T00:16:38.877Z,99671.00
2023-02-04T00:19:08.595Z,99681.55
2023-02-04T00:21:38.373Z,99690.24
2023-02-04T00:24:07.996Z,99694.94
2023-02-04T00:26:38.016Z,99694.33
2023-02-04T00:29:07.860Z,99711.55
2023-02-04T00:31:37.797Z,99716.69
2023-02-04T00:34:07.314Z,99719.86
2023-02-04T00:36:38.549Z,99744.27
2023-02-04T00:39:08.420Z,99740.80
2023-02-04T00:41:38.278Z,99740.41
2023-02-04T00:44:07.855Z,99741.80
2023-02-04T00:46:37.615Z,99745.49
2023-02-04T00:49:08.993Z,99754.17
2023-02-04T00:51:38.746Z,99746.88
2023-02-04T00:54:08.844Z,99766.55
2023-02-04T00:56:38.571Z,99752.66
2023-02-04T01:01:48.557Z,99771.77
2023-02-04T01:04:18.391Z,99766.48
2023-02-04T01:06:48.465Z,99787.61
2023-02-04T01:09:18.308Z,99792.95
2023-02-04T01:11:48.134Z,99814.69
2023-02-04T01:14:17.740Z,99823.79
2023-02-04T01:16:47.678Z,99819.23
2023-02-04T01:19:18.351Z,99823.22
2023-02-04T01:21:48.651Z,99839.54
2023-02-04T01:24:18.410Z,99839.54
2023-02-04T01:27:07.231Z,99857.63
2023-02-04T01:29:36.933Z,99875.86
2023-02-04T01:32:06.840Z,99901.50
2023-02-04T01:34:36.602Z,99902.02
2023-02-04T01:37:06.799Z,99945.91
2023-02-04T01:39:36.868Z,99945.91
2023-02-04T01:42:07.047Z,99951.14
2023-02-04T01:44:36.917Z,99985.28
2023-02-04T01:47:07.278Z,100001.56
2023-02-04T01:49:37.116Z,100025.67
2023-02-04T01:52:06.813Z,100060.41
2023-02-04T01:54:36.550Z,100065.79
2023-02-04T01:57:09.519Z,100064.59
2023-02-04T01:59:40.876Z,100091.14
2023-02-04T02:02:42.361Z,100101.11
2023-02-04T02:05:15.426Z,100116.50
2023-02-04T02:07:45.840Z,100128.27
2023-02-04T02:10:16.596Z,100142.64
2023-02-04T02:12:47.707Z,100159.16
2023-02-04T02:15:18.660Z,100175.73
2023-02-04T02:17:48.849Z,100197.30
2023-02-04T02:20:21.637Z,100219.48
2023-02-04T02:23:06.126Z,100226.89
2023-02-04T02:25:36.694Z,100228.64
2023-02-04T02:28:09.406Z,100254.46
2023-02-04T02:30:40.022Z,100272.69
2023-02-04T02:33:10.362Z,100290.59
2023-02-04T02:35:42.106Z,100305.27
2023-02-04T02:38:13.103Z,100326.40
2023-02-04T02:40:43.754Z,100356.38
2023-02-04T02:43:19.042Z,100370.06
2023-02-04T02:45:49.247Z,100385.51
2023-02-04T02:48:19.439Z,100391.91
2023-02-04T02:50:50.162Z,100421.59
2023-02-04T02:53:21.925Z,100421.59
2023-02-04T02:55:52.484Z,100438.58
2023-02-04T02:58:36.716Z,100445.42
2023-02-04T03:01:09.321Z,100467.75
2023-02-04T03:03:42.648Z,100493.81
2023-02-04T03:06:15.550Z,100512.44
2023-02-04T03:08:45.822Z,100520.33
2023-02-04T03:11:15.844Z,100546.92
2023-02-04T03:13:45.572Z,100554.30
2023-02-04T03:16:15.281Z,100565.19
2023-02-04T03:18:49.066Z,100585.78
2023-02-04T03:21:18.604Z,100598.86
2023-02-04T03:23:48.492Z,100617.06
2023-02-04T03:26:18.186Z,100623.46
2023-02-04T03:28:47.939Z,100642.70
2023-02-04T03:31:18.031Z,100664.92
2023-02-04T03:33:47.877Z,100671.59
2023-02-04T03:36:17.615Z,100681.66
2023-02-04T03:38:47.365Z,100691.69
2023-02-04T03:41:16.926Z,100710.41
2023-02-04T03:43:46.684Z,100722.48
2023-02-04T03:46:16.650Z,100723.44
2023-02-04T03:48:46.432Z,100725.28
2023-02-04T03:51:15.900Z,100738.80
2023-02-04T03:53:45.686Z,100758.59
2023-02-04T03:56:15.195Z,100770.36
2023-02-04T03:58:45.014Z,100782.44
2023-02-04T04:01:14.574Z,100798.45
2023-02-04T04:03:44.368Z,100811.59
2023-02-04T04:06:14.139Z,100821.13
2023-02-04T04:08:43.833Z,100841.17
2023-02-04T04:11:14.318Z,100839.03
2023-02-04T04:13:44.376Z,100839.03
2023-02-04T04:16:14.205Z,100853.08
2023-02-04T04:18:46.957Z,100865.31
2023-02-04T04:21:16.784Z,100866.94
2023-02-04T04:23:46.544Z,100879.26
2023-02-04T04:26:17.290Z,100892.30
2023-02-04T04:28:46.032Z,100895.28
2023-02-04T04:31:15.665Z,100900.06
2023-02-04T04:33:45.582Z,100910.83
2023-02-04T04:36:15.025Z,100915.78
2023-02-04T04:38:44.807Z,100929.97
2023-02-04T04:41:14.375Z,100951.14
2023-02-04T04:43:44.151Z,100954.19
2023-02-04T04:46:13.828Z,100961.91
2023-02-04T04:48:43.614Z,100959.30
2023-02-04T04:51:13.302Z,100972.36
2023-02-04T04:53:43.055Z,100984.61
2023-02-04T04:56:12.871Z,100998.86
2023-02-04T04:58:43.830Z,100998.86
2023-02-04T05:01:13.585Z,101006.41
2023-02-04T05:03:43.355Z,101024.61
2023-02-04T05:06:13.255Z,101020.29
2023-02-04T05:08:43.098Z,101044.80
2023-02-04T05:11:12.783Z,101054.80
2023-02-04T05:13:42.502Z,101063.28
2023-02-04T05:16:16.006Z,101068.77
2023-02-04T05:18:45.639Z,101082.44
2023-02-04T05:21:15.107Z,101090.80
2023-02-04T05:23:44.876Z,101102.57
2023-02-04T05:26:22.176Z,101106.05
2023-02-04T05:28:45.862Z,101105.96
2023-02-04T05:31:15.423Z,101106.43
2023-02-04T05:33:45.223Z,101115.81
2023-02-04T05:36:14.974Z,101126.53
2023-02-04T05:38:44.895Z,101131.11
2023-02-04T05:41:14.628Z,101133.13
2023-02-04T05:43:44.391Z,101148.50
2023-02-04T05:46:14.266Z,101159.17
2023-02-04T05:48:45.302Z,101168.52
2023-02-04T05:51:14.912Z,101177.06
2023-02-04T05:53:44.657Z,101177.06
2023-02-04T05:56:14.262Z,101178.81
2023-02-04T05:58:44.105Z,101183.73
2023-02-04T06:01:13.554Z,101200.63
2023-02-04T06:03:43.398Z,101211.84
2023-02-04T06:06:12.855Z,101221.91
2023-02-04T06:08:42.622Z,101227.53
2023-02-04T06:11:12.416Z,101232.38
2023-02-04T06:13:42.205Z,101247.94
2023-02-04T06:16:13.568Z,101264.08
2023-02-04T06:18:42.461Z,101274.47
2023-02-04T06:21:12.052Z,101283.56
2023-02-04T06:23:41.794Z,101289.22
2023-02-04T06:26:11.902Z,101298.50
2023-02-04T06:28:41.653Z,101307.16
2023-02-04T06:31:11.354Z,101318.84
2023-02-04T06:33:41.119Z,101327.94
2023-02-04T06:36:10.767Z,101342.58
2023-02-04T06:38:40.406Z,101358.72
2023-02-04T06:41:10.179Z,101365.27
2023-02-04T06:43:40.236Z,101373.45
2023-02-04T06:46:10.038Z,101373.45
2023-02-04T06:48:39.954Z,101385.64
2023-02-04T06:51:09.705Z,101385.64
2023-02-04T06:53:40.230Z,101392.56
2023-02-04T06:56:11.289Z,101396.37
2023-02-04T06:58:41.039Z,101396.37
2023-02-04T07:04:01.559Z,101415.48
2023-02-04T07:06:30.978Z,101422.84
2023-02-04T07:09:01.126Z,101432.03
2023-02-04T07:11:30.590Z,101427.66
2023-02-04T07:14:00.348Z,101438.52
2023-02-04T07:16:30.420Z,101447.55
2023-02-04T07:19:00.169Z,101448.94
2023-02-04T07:21:29.940Z,101451.98
2023-02-04T07:24:00.237Z,101461.84
2023-02-04T07:26:29.762Z,101473.10
2023-02-04T07:28:59.252Z,101468.83
2023-02-04T07:31:29.158Z,101482.16
2023-02-04T07:33:59.013Z,101489.89
2023-02-04T07:36:29.090Z,101503.05
2023-02-04T07:38:58.676Z,101501.32
2023-02-04T07:41:28.434Z,101501.20
2023-02-04T07:43:58.187Z,101504.11
2023-02-04T07:46:28.355Z,101517.55
2023-02-04T07:48:57.760Z,101517.16
2023-02-04T07:51:29.959Z,101520.93
2023-02-04T07:53:59.697Z,101531.84
2023-02-04T07:56:29.477Z,101533.40
2023-02-04T07:58:59.228Z,101533.09
2023-02-04T08:01:29.331Z,101536.35
2023-02-04T08:03:59.061Z,101541.22
2023-02-04T08:06:29.342Z,101543.63
2023-02-04T08:08:59.384Z,101554.02
2023-02-04T08:11:29.158Z,101561.31
2023-02-04T08:13:58.975Z,101560.30
2023-02-04T08:16:29.055Z,101566.97
2023-02-04T08:18:58.834Z,101575.48
2023-02-04T08:21:28.580Z,101571.70
2023-02-04T08:23:58.887Z,101581.68
2023-02-04T08:26:28.722Z,101581.68
2023-02-04T08:28:58.752Z,101583.80
2023-02-04T08:31:28.657Z,101596.41
2023-02-04T08:33:58.793Z,101606.13
2023-02-04T08:36:28.556Z,101606.13
2023-02-04T08:38:58.312Z,101602.42
2023-02-04T08:41:28.410Z,101597.88
2023-02-04T08:43:58.527Z,101602.53
2023-02-04T08:46:28.738Z,101602.53
2023-02-04T08:48:58.960Z,101606.88
2023-02-04T08:51:28.699Z,101618.80
2023-02-04T08:53:58.444Z,101618.41
2023-02-04T08:56:28.206Z,101613.31
2023-02-04T08:58:58.017Z,101612.91
2023-02-04T09:01:27.945Z,101619.63
2023-02-04T09:03:57.786Z,101615.63
2023-02-04T09:06:27.523Z,101615.75
2023-02-04T09:08:57.347Z,101617.53
2023-02-04T09:11:27.090Z,101609.28
2023-02-04T09:13:57.497Z,101611.91
2023-02-04T09:16:27.441Z,101614.44
2023-02-04T09:18:58.815Z,101618.01
2023-02-04T09:21:28.855Z,101620.97
2023-02-04T09:23:59.174Z,101627.53
2023-02-04T09:26:28.924Z,101631.91
2023-02-04T09:28:58.682Z,101634.31
2023-02-04T09:31:29.048Z,101639.97
2023-02-04T09:34:00.022Z,101639.97
2023-02-04T09:36:31.922Z,101641.45
2023-02-04T09:39:01.668Z,101639.69
2023-02-04T09:41:31.429Z,101651.80
2023-02-04T09:44:02.490Z,101664.34
2023-02-04T09:46:33.977Z,101664.34
2023-02-04T09:49:04.316Z,101655.52
2023-02-04T09:51:36.974Z,101663.81
2023-02-04T09:54:16.192Z,101659.01
2023-02-04T09:56:46.478Z,101658.46
2023-02-04T09:59:21.959Z,101654.44
2023-02-04T10:01:54.765Z,101672.97
2023-02-04T10:04:25.069Z,101677.11
2023-02-04T10:06:58.427Z,101677.11
2023-02-04T10:09:28.339Z,101670.36
2023-02-04T10:11:58.379Z,101670.50
2023-02-04T10:14:28.211Z,101661.45
2023-02-04T10:17:00.944Z,101673.56
2023-02-04T10:19:31.588Z,101682.77
2023-02-04T10:22:01.588Z,101685.19
2023-02-04T10:24:31.906Z,101690.92
2023-02-04T10:27:12.084Z,101696.66
2023-02-04T10:29:42.430Z,101710.69
2023-02-04T10:32:32.126Z,101705.75
2023-02-04T10:35:04.105Z,101708.80
2023-02-04T10:37:33.935Z,101703.05
2023-02-04T10:40:03.823Z,101703.05
2023-02-04T10:42:33.776Z,101704.41
2023-02-04T10:45:03.529Z,101704.41
2023-02-04T10:47:34.920Z,101714.10
2023-02-04T10:50:08.038Z,101712.47
2023-02-04T10:52:40.819Z,101712.44
2023-02-04T10:55:13.628Z,101716.27
2023-02-04T10:57:45.751Z,101712.48
2023-02-04T11:00:24.888Z,101715.27
2023-02-04T11:03:03.508Z,101723.22
2023-02-04T11:05:35.818Z,101730.56
2023-02-04T11:08:15.312Z,101730.56
2023-02-04T11:10:45.210Z,101735.41
2023-02-04T11:13:23.646Z,101744.11
2023-02-04T11:16:11.447Z,101748.66
2023-02-04T11:18:50.060Z,101754.48
2023-02-04T11:21:31.221Z,101763.62
2023-02-04T11:24:15.779Z,101757.02
2023-02-04T11:26:51.592Z,101760.68
2023-02-04T11:29:26.440Z,101767.71
2023-02-04T11:32:07.919Z,101765.80
2023-02-04T11:34:55.911Z,101778.84
2023-02-04T11:37:40.547Z,101770.40
2023-02-04T11:40:30.707Z,101787.94
2023-02-04T11:43:06.021Z,101784.91
2023-02-04T11:45:38.085Z,101788.52
2023-02-04T11:48:21.831Z,101781.28
2023-02-04T11:51:02.889Z,101773.81
2023-02-04T11:53:34.212Z,101783.73
2023-02-04T11:56:03.001Z,101783.73
2023-02-04T11:58:33.415Z,101785.37
2023-02-04T12:01:03.167Z,101786.45
2023-02-04T12:03:34.901Z,101788.80
2023-02-04T12:06:06.632Z,101789.95
2023-02-04T12:08:37.629Z,101792.05
2023-02-04T12:11:14.771Z,101792.05
2023-02-04T12:13:53.140Z,101804.89
2023-02-04T12:16:22.979Z,101807.89
2023-02-04T12:18:52.965Z,101815.07
2023-02-04T12:21:22.702Z,101813.34
2023-02-04T12:23:52.469Z,101823.87
2023-02-04T12:26:22.206Z,101814.81
2023-02-04T12:28:51.976Z,101822.09
2023-02-04T12:31:22.025Z,101813.66
2023-02-04T12:33:53.530Z,101804.33
2023-02-04T12:36:23.476Z,101811.62
2023-02-04T12:38:53.325Z,101811.29
2023-02-04T12:41:22.774Z,101812.44
2023-02-04T12:43:54.165Z,101804.03
2023-02-04T12:46:23.956Z,101806.99
2023-02-04T12:48:53.752Z,101813.90
2023-02-04T12:51:23.360Z,101821.88
2023-02-04T12:53:53.119Z,101809.64
2023-02-04T12:56:24.173Z,101811.62
2023-02-04T12:58:53.966Z,101814.01
2023-02-04T13:03:55.948Z,101820.28
2023-02-04T13:06:25.788Z,101827.53
2023-02-04T13:08:55.644Z,101832.63
2023-02-04T13:11:27.072Z,101832.73
2023-02-04T13:13:56.857Z,101836.17
2023-02-04T13:16:26.817Z,101836.99
2023-02-04T13:18:56.602Z,101838.02
2023-02-04T13:21:27.292Z,101843.34
2023-02-04T13:23:57.359Z,101841.19
2023-02-04T13:26:27.197Z,101848.00
2023-02-04T13:28:57.055Z,101852.07
2023-02-04T13:31:27.851Z,101850.87
2023-02-04T13:33:57.699Z,101843.55
2023-02-04T13:36:28.434Z,101843.47
2023-02-04T13:38:59.971Z,101843.47
2023-02-04T13:41:30.288Z,101844.02
2023-02-04T13:44:00.120Z,101852.67
2023-02-04T13:46:30.004Z,101857.86
2023-02-04T13:48:59.996Z,101860.86
2023-02-04T13:51:29.880Z,101864.91
2023-02-04T13:54:00.442Z,101871.81
2023-02-04T13:56:32.889Z,101867.38
2023-02-04T13:59:02.660Z,101871.84
2023-02-04T14:01:32.426Z,101876.70
2023-02-04T14:04:02.486Z,101875.06
2023-02-04T14:06:37.230Z,101875.84
2023-02-04T14:09:06.801Z,101880.67
2023-02-04T14:11:36.710Z,101873.88
2023-02-04T14:14:07.322Z,101881.61
2023-02-04T14:16:38.057Z,101885.96
2023-02-04T14:19:12.831Z,101881.21
2023-02-04T14:21:42.892Z,101889.46
2023-02-04T14:24:12.689Z,101899.89
2023-02-04T14:26:42.587Z,101900.33
2023-02-04T14:29:12.368Z,101888.90
2023-02-04T14:31:42.572Z,101896.00
2023-02-04T14:34:12.373Z,101900.02
2023-02-04T14:36:42.220Z,101908.75
2023-02-04T14:39:11.957Z,101918.83
2023-02-04T14:41:45.671Z,101920.14
2023-02-04T14:44:14.895Z,101934.02
2023-02-04T14:46:47.392Z,101921.52
2023-02-04T14:49:17.757Z,101918.91
2023-02-04T14:51:48.838Z,101918.03
2023-02-04T14:54:18.715Z,101918.03
2023-02-04T14:56:53.010Z,101914.66
2023-02-04T14:59:24.599Z,101912.92
2023-02-04T15:01:54.415Z,101913.72
2023-02-04T15:04:24.280Z,101912.47
2023-02-04T15:06:55.650Z,101914.09
2023-02-04T15:09:26.393Z,101914.59
2023-02-04T15:11:56.888Z,101915.09
2023-02-04T15:14:26.753Z,101918.56
2023-02-04T15:16:57.598Z,101924.22
2023-02-04T15:19:27.927Z,101927.58
2023-02-04T15:21:57.974Z,101932.00
2023-02-04T15:24:30.346Z,101922.48
2023-02-04T15:26:59.995Z,101933.23
2023-02-04T15:29:30.692Z,101936.34
2023-02-04T15:31:59.989Z,101938.08
2023-02-04T15:34:30.107Z,101949.73
2023-02-04T15:36:59.866Z,101953.25
2023-02-04T15:39:29.966Z,101949.39
2023-02-04T15:41:59.799Z,101967.28
2023-02-04T15:44:33.409Z,101961.64
2023-02-04T15:47:05.621Z,101960.83
2023-02-04T15:49:37.680Z,101960.41
2023-02-04T15:52:13.492Z,101957.86
2023-02-04T15:54:41.118Z,101961.70
2023-02-04T15:57:11.355Z,101953.47
2023-02-04T15:59:41.150Z,101953.08
2023-02-04T16:02:11.637Z,101955.69
2023-02-04T16:04:43.171Z,101958.28
2023-02-04T16:07:13.653Z,101965.19
2023-02-04T16:09:45.894Z,101971.72
2023-02-04T16:12:16.837Z,101976.88
2023-02-04T16:14:46.736Z,101979.48
2023-02-04T16:17:18.278Z,101977.79
2023-02-04T16:19:48.044Z,101980.77
2023-02-04T16:22:17.521Z,101983.81
2023-02-04T16:24:47.335Z,101977.31
2023-02-04T16:27:17.229Z,101979.47
2023-02-04T16:29:46.987Z,101984.68
2023-02-04T16:32:17.086Z,101976.88
2023-02-04T16:34:47.046Z,101978.61
2023-02-04T16:37:26.482Z,101978.66
2023-02-04T16:39:56.310Z,101981.26
2023-02-04T16:42:29.672Z,101986.86
2023-02-04T16:45:01.584Z,101983.86
2023-02-04T16:47:32.847Z,101994.70
2023-02-04T16:50:02.789Z,101991.23
2023-02-04T16:52:33.107Z,102000.77
2023-02-04T16:55:02.706Z,101995.96
2023-02-04T16:57:32.582Z,101999.47
2023-02-04T17:00:02.640Z,102002.06
2023-02-04T17:02:34.802Z,102007.23
2023-02-04T17:05:09.580Z,102005.06
2023-02-04T17:07:40.294Z,102015.03
2023-02-04T17:10:10.654Z,102012.91
2023-02-04T17:12:40.716Z,102011.59
2023-02-04T17:15:11.038Z,102022.87
2023-02-04T17:17:41.476Z,102017.23
2023-02-04T17:20:11.662Z,102018.94
2023-02-04T17:22:42.451Z,102018.94
2023-02-04T17:25:14.796Z,102027.64
2023-02-04T17:27:44.830Z,102029.34
2023-02-04T17:30:21.408Z,102030.67
2023-02-04T17:32:58.296Z,102032.81
2023-02-04T17:35:30.737Z,102024.61
2023-02-04T17:38:09.549Z,102031.97
2023-02-04T17:40:39.338Z,102038.48
2023-02-04T17:43:09.798Z,102033.67
2023-02-04T17:45:39.613Z,102038.45
2023-02-04T17:48:09.158Z,102037.61
2023-02-04T17:50:40.191Z,102038.88
2023-02-04T17:53:14.352Z,102042.78
2023-02-04T17:55:44.131Z,102039.31
2023-02-04T17:58:16.704Z,102037.14
2023-02-04T18:00:49.359Z,102041.05
2023-02-04T18:03:31.668Z,102038.01
2023-02-04T18:06:14.127Z,102049.72
2023-02-04T18:08:51.784Z,102047.55
2023-02-04T18:11:27.267Z,102050.17
2023-02-04T18:13:59.685Z,102048.84
2023-02-04T18:16:31.836Z,102061.45
2023-02-04T18:19:16.870Z,102053.19
2023-02-04T18:21:47.859Z,102048.85
2023-02-04T18:24:20.802Z,102045.41
2023-02-04T18:26:53.412Z,102044.98
2023-02-04T18:29:32.682Z,102058.41
2023-02-04T18:32:26.410Z,102064.45
2023-02-04T18:34:59.387Z,102063.17
2023-02-04T18:37:39.615Z,102072.71
2023-02-04T18:40:12.935Z,102075.31
2023-02-04T18:42:45.368Z,102077.91
2023-02-04T18:45:30.352Z,102084.86
2023-02-04T18:48:03.308Z,102083.09
2023-02-04T18:50:35.503Z,102081.37
2023-02-04T18:53:22.380Z,102080.08
2023-02-04T18:55:55.183Z,102082.25
2023-02-04T18:58:32.340Z,102091.35
2023-02-04T19:01:05.292Z,102096.54
2023-02-04T19:03:40.846Z,102092.20
2023-02-04T19:06:22.368Z,102097.42
2023-02-04T19:08:55.252Z,102097.42
2023-02-04T19:11:45.299Z,102098.27
2023-02-04T19:14:26.543Z,102094.82
2023-02-04T19:16:59.358Z,102094.37
2023-02-04T19:19:37.544Z,102094.37
2023-02-04T19:22:43.658Z,102097.83
2023-02-04T19:25:36.070Z,102103.47
2023-02-04T19:28:28.399Z,102105.61
2023-02-04T19:31:08.808Z,102103.44
2023-02-04T19:33:42.683Z,102103.02
2023-02-04T19:36:30.472Z,102106.52
2023-02-04T19:39:17.703Z,102109.08
2023-02-04T19:41:52.988Z,102111.67
2023-02-04T19:44:40.707Z,102106.91
2023-02-04T19:47:43.164Z,102110.34
2023-02-04T19:50:30.901Z,102112.50
2023-02-04T19:53:06.362Z,102115.95
2023-02-04T19:55:45.339Z,102112.94
2023-02-04T19:58:25.016Z,102114.20
2023-02-04T20:01:08.320Z,102124.59
2023-02-04T20:03:46.328Z,102123.66
2023-02-04T20:06:27.697Z,102128.02
2023-02-04T20:09:13.358Z,102127.58
2023-02-04T20:11:57.941Z,102133.23
2023-02-04T20:14:42.690Z,102140.13
2023-02-04T20:17:15.272Z,102135.80
2023-02-04T20:19:45.438Z,102138.41
2023-02-04T20:22:26.014Z,102134.06
2023-02-04T20:25:00.783Z,102142.73
2023-02-04T20:27:42.201Z,102140.98
2023-02-04T20:30:18.736Z,102143.49
2023-02-04T20:32:50.796Z,102150.41
2023-02-04T20:35:33.881Z,102149.55
2023-02-04T20:38:15.374Z,102151.27
2023-02-04T20:40:46.874Z,102151.66
2023-02-04T20:43:20.191Z,102156.47
2023-02-04T20:46:05.146Z,102159.06
2023-02-04T20:48:38.512Z,102151.27
2023-02-04T20:51:15.080Z,102154.63
2023-02-04T20:54:02.021Z,102159.39
2023-02-04T20:56:37.595Z,102170.62
2023-02-04T20:59:22.195Z,102171.99
2023-02-04T21:01:53.564Z,102176.75
2023-02-04T21:04:32.496Z,102177.99
2023-02-04T21:07:05.902Z,102187.84
2023-02-04T21:09:37.567Z,102187.50
2023-02-04T21:12:07.749Z,102190.85
2023-02-04T21:14:37.369Z,102189.54
2023-02-04T21:17:07.863Z,102194.25
2023-02-04T21:19:37.344Z,102193.92
2023-02-04T21:22:11.023Z,102192.08
2023-02-04T21:24:44.111Z,102197.73
2023-02-04T21:27:18.152Z,102198.52
2023-02-04T21:29:47.970Z,102198.45
2023-02-04T21:32:18.953Z,102192.48
2023-02-04T21:34:49.701Z,102195.47
2023-02-04T21:37:21.522Z,102195.47
2023-02-04T21:40:01.610Z,102200.14
2023-02-04T21:42:31.154Z,102198.92
2023-02-04T21:45:01.392Z,102203.47
2023-02-04T21:47:31.384Z,102201.29
2023-02-04T21:50:00.862Z,102201.59
2023-02-04T21:52:30.689Z,102203.13
2023-02-04T21:55:01.170Z,102201.00
2023-02-04T21:57:32.085Z,102208.15
2023-02-04T22:00:02.136Z,102211.76
2023-02-04T22:02:33.652Z,102206.17
2023-02-04T22:05:04.937Z,102211.77
2023-02-04T22:07:37.763Z,102212.08
2023-02-04T22:10:10.410Z,102211.17
2023-02-04T22:12:39.896Z,102216.00
2023-02-04T22:15:20.804Z,102227.08
2023-02-04T22:17:51.925Z,102226.67
2023-02-04T22:20:23.965Z,102229.25
2023-02-04T22:22:54.017Z,102229.25
2023-02-04T22:25:26.217Z,102231.06
2023-02-04T22:27:57.077Z,102229.23
2023-02-04T22:30:28.953Z,102237.80
2023-02-04T22:33:00.754Z,102242.00
2023-02-04T22:35:33.799Z,102238.38
2023-02-04T22:38:04.578Z,102242.70
2023-02-04T22:40:34.370Z,102243.81
2023-02-04T22:43:04.867Z,102249.09
2023-02-04T22:45:34.731Z,102245.19
2023-02-04T22:48:05.603Z,102247.30
2023-02-04T22:50:35.448Z,102258.63
2023-02-04T22:53:05.260Z,102258.63
2023-02-04T22:55:35.203Z,102254.61
2023-02-04T22:58:05.089Z,102249.65
2023-02-04T23:00:35.593Z,102250.70
2023-02-04T23:03:06.043Z,102251.96
2023-02-04T23:05:37.327Z,102256.98
2023-02-04T23:08:07.321Z,102251.43
2023-02-04T23:10:39.056Z,102248.03
2023-02-04T23:13:08.993Z,102241.39
2023-02-04T23:15:42.095Z,102248.61
2023-02-04T23:18:11.562Z,102248.88
2023-02-04T23:20:42.000Z,102246.80
2023-02-04T23:23:14.148Z,102245.05
2023-02-04T23:25:46.840Z,102249.48
2023-02-04T23:28:17.410Z,102248.47
2023-02-04T23:30:47.021Z,102249.77
2023-02-04T23:33:16.478Z,102246.11
2023-02-04T23:35:46.174Z,102252.62
2023-02-04T23:38:16.001Z,102245.58
2023-02-04T23:40:45.879Z,102248.59
2023-02-04T23:43:15.717Z,102244.78
2023-02-04T23:45:45.993Z,102246.97
2023-02-04T23:48:20.276Z,102237.89
2023-02-04T23:50:50.085Z,102234.86
2023-02-04T23:53:22.602Z,102227.95
2023-02-04T23:55:52.430Z,102229.66
2023-02-04T23:58:22.906Z,102230.37
